sensor_id;sensor_type;location;lat;lon;timestamp;temperature;humidity
47384;DHT22;33129;52.232;5.192;2022-11-03T00:01:57;14.00;99.90
47384;DHT22;33129;52.232;5.192;2022-11-03T00:04:23;13.70;99.90
47384;DHT22;33129;52.232;5.192;2022-11-03T00:06:50;14.00;99.90
47384;DHT22;33129;52.232;5.192;2022-11-03T00:09:19;13.70;99.90
47384;DHT22;33129;52.232;5.192;2022-11-03T00:11:47;14.10;99.90
47384;DHT22;33129;52.232;5.192;2022-11-03T00:14:15;13.90;99.90
47384;DHT22;33129;52.232;5.192;2022-11-03T00:16:42;13.70;99.90
47384;DHT22;33129;52.232;5.192;2022-11-03T00:19:08;13.90;99.90
47384;DHT22;33129;52.232;5.192;2022-11-03T00:21:36;13.80;99.90
47384;DHT22;33129;52.232;5.192;2022-11-03T00:24:03;13.40;99.90
47384;DHT22;33129;52.232;5.192;2022-11-03T00:26:31;13.90;99.90
47384;DHT22;33129;52.232;5.192;2022-11-03T00:29:06;14.00;99.90
47384;DHT22;33129;52.232;5.192;2022-11-03T00:31:35;14.00;99.90
47384;DHT22;33129;52.232;5.192;2022-11-03T00:34:02;14.00;99.90
47384;DHT22;33129;52.232;5.192;2022-11-03T00:36:40;14.10;99.90
47384;DHT22;33129;52.232;5.192;2022-11-03T00:39:07;13.90;99.90
47384;DHT22;33129;52.232;5.192;2022-11-03T00:41:33;14.00;99.90
47384;DHT22;33129;52.232;5.192;2022-11-03T00:43:59;13.70;99.90
47384;DHT22;33129;52.232;5.192;2022-11-03T00:46:25;13.80;99.90
47384;DHT22;33129;52.232;5.192;2022-11-03T00:48:51;13.80;99.90
47384;DHT22;33129;52.232;5.192;2022-11-03T00:51:24;13.80;99.90
47384;DHT22;33129;52.232;5.192;2022-11-03T00:53:58;13.70;99.90
47384;DHT22;33129;52.232;5.192;2022-11-03T00:56:29;13.40;1.00
47384;DHT22;33129;52.232;5.192;2022-11-03T00:58:58;13.90;99.90
47384;DHT22;33129;52.232;5.192;2022-11-03T01:01:33;13.90;99.90
47384;DHT22;33129;52.232;5.192;2022-11-03T01:04:00;13.90;99.90
47384;DHT22;33129;52.232;5.192;2022-11-03T01:06:47;13.80;99.90
47384;DHT22;33129;52.232;5.192;2022-11-03T01:11:59;13.90;99.90
47384;DHT22;33129;52.232;5.192;2022-11-03T01:14:44;13.60;99.90
47384;DHT22;33129;52.232;5.192;2022-11-03T01:17:21;13.40;99.90
47384;DHT22;33129;52.232;5.192;2022-11-03T01:19:51;13.90;1.00
47384;DHT22;33129;52.232;5.192;2022-11-03T01:22:17;13.90;1.00
47384;DHT22;33129;52.232;5.192;2022-11-03T01:24:43;13.70;1.00
47384;DHT22;33129;52.232;5.192;2022-11-03T01:27:15;13.80;1.00
47384;DHT22;33129;52.232;5.192;2022-11-03T01:29:42;13.80;1.00
47384;DHT22;33129;52.232;5.192;2022-11-03T01:32:09;13.70;1.00
47384;DHT22;33129;52.232;5.192;2022-11-03T01:34:35;13.90;1.00
47384;DHT22;33129;52.232;5.192;2022-11-03T01:37:01;13.90;1.00
47384;DHT22;33129;52.232;5.192;2022-11-03T01:39:27;13.70;1.00
47384;DHT22;33129;52.232;5.192;2022-11-03T01:41:52;13.70;1.00
47384;DHT22;33129;52.232;5.192;2022-11-03T01:44:22;13.60;1.00
47384;DHT22;33129;52.232;5.192;2022-11-03T01:47:24;13.80;1.00
47384;DHT22;33129;52.232;5.192;2022-11-03T01:50:01;13.40;1.00
47384;DHT22;33129;52.232;5.192;2022-11-03T01:55:26;13.80;1.00
47384;DHT22;33129;52.232;5.192;2022-11-03T01:58:23;13.80;1.00
47384;DHT22;33129;52.232;5.192;2022-11-03T02:00:58;13.70;1.00
47384;DHT22;33129;52.232;5.192;2022-11-03T02:03:26;13.70;1.00
47384;DHT22;33129;52.232;5.192;2022-11-03T02:05:54;13.50;1.00
47384;DHT22;33129;52.232;5.192;2022-11-03T02:10:56;13.60;1.00
47384;DHT22;33129;52.232;5.192;2022-11-03T02:13:26;13.80;1.00
47384;DHT22;33129;52.232;5.192;2022-11-03T02:15:57;13.40;1.00
47384;DHT22;33129;52.232;5.192;2022-11-03T02:18:26;13.30;1.00
47384;DHT22;33129;52.232;5.192;2022-11-03T02:21:07;13.40;1.00
47384;DHT22;33129;52.232;5.192;2022-11-03T02:26:46;13.40;1.00
47384;DHT22;33129;52.232;5.192;2022-11-03T02:29:14;13.30;1.00
47384;DHT22;33129;52.232;5.192;2022-11-03T02:31:56;13.70;1.00
47384;DHT22;33129;52.232;5.192;2022-11-03T02:35:16;13.40;1.00
47384;DHT22;33129;52.232;5.192;2022-11-03T02:37:27;13.60;1.00
47384;DHT22;33129;52.232;5.192;2022-11-03T02:40:05;13.60;1.00
47384;DHT22;33129;52.232;5.192;2022-11-03T02:42:40;13.70;1.00
47384;DHT22;33129;52.232;5.192;2022-11-03T02:45:08;13.40;1.00
47384;DHT22;33129;52.232;5.192;2022-11-03T02:47:37;13.40;1.00
47384;DHT22;33129;52.232;5.192;2022-11-03T02:50:06;13.50;1.00
47384;DHT22;33129;52.232;5.192;2022-11-03T02:52:44;13.80;1.00
47384;DHT22;33129;52.232;5.192;2022-11-03T02:55:31;13.60;1.00
47384;DHT22;33129;52.232;5.192;2022-11-03T03:03:38;13.40;1.00
47384;DHT22;33129;52.232;5.192;2022-11-03T03:06:12;13.60;1.00
47384;DHT22;33129;52.232;5.192;2022-11-03T03:08:45;13.50;1.00
47384;DHT22;33129;52.232;5.192;2022-11-03T03:11:13;13.70;1.00
47384;DHT22;33129;52.232;5.192;2022-11-03T03:13:40;13.50;1.00
47384;DHT22;33129;52.232;5.192;2022-11-03T03:16:15;13.80;1.00
47384;DHT22;33129;52.232;5.192;2022-11-03T03:18:50;13.50;1.00
47384;DHT22;33129;52.232;5.192;2022-11-03T03:21:22;13.80;1.00
47384;DHT22;33129;52.232;5.192;2022-11-03T03:23:57;13.60;1.00
47384;DHT22;33129;52.232;5.192;2022-11-03T03:26:34;13.60;1.00
47384;DHT22;33129;52.232;5.192;2022-11-03T03:29:17;13.40;1.00
47384;DHT22;33129;52.232;5.192;2022-11-03T03:32:07;13.70;1.00
47384;DHT22;33129;52.232;5.192;2022-11-03T03:34:37;13.80;1.00
47384;DHT22;33129;52.232;5.192;2022-11-03T03:37:05;13.80;1.00
47384;DHT22;33129;52.232;5.192;2022-11-03T03:39:34;13.60;1.00
47384;DHT22;33129;52.232;5.192;2022-11-03T03:42:02;13.90;1.00
47384;DHT22;33129;52.232;5.192;2022-11-03T03:44:30;13.80;1.00
47384;DHT22;33129;52.232;5.192;2022-11-03T03:47:10;13.80;1.00
47384;DHT22;33129;52.232;5.192;2022-11-03T03:49:44;14.00;1.00
47384;DHT22;33129;52.232;5.192;2022-11-03T03:52:10;14.00;1.00
47384;DHT22;33129;52.232;5.192;2022-11-03T03:54:36;13.90;1.00
47384;DHT22;33129;52.232;5.192;2022-11-03T03:57:04;13.90;1.00
47384;DHT22;33129;52.232;5.192;2022-11-03T03:59:30;14.00;1.00
47384;DHT22;33129;52.232;5.192;2022-11-03T04:01:56;14.00;1.00
47384;DHT22;33129;52.232;5.192;2022-11-03T04:04:23;13.80;1.00
47384;DHT22;33129;52.232;5.192;2022-11-03T04:06:49;13.80;1.00
47384;DHT22;33129;52.232;5.192;2022-11-03T04:09:35;13.70;1.00
47384;DHT22;33129;52.232;5.192;2022-11-03T04:12:02;13.70;1.00
47384;DHT22;33129;52.232;5.192;2022-11-03T04:14:47;14.00;1.00
47384;DHT22;33129;52.232;5.192;2022-11-03T04:17:31;13.90;1.00
47384;DHT22;33129;52.232;5.192;2022-11-03T04:20:16;13.80;1.00
47384;DHT22;33129;52.232;5.192;2022-11-03T04:23:00;13.60;1.00
47384;DHT22;33129;52.232;5.192;2022-11-03T04:25:25;14.00;1.00
47384;DHT22;33129;52.232;5.192;2022-11-03T04:27:51;13.90;1.00
47384;DHT22;33129;52.232;5.192;2022-11-03T04:30:18;13.90;1.00
47384;DHT22;33129;52.232;5.192;2022-11-03T04:32:49;14.10;1.00
47384;DHT22;33129;52.232;5.192;2022-11-03T04:35:16;14.00;1.00
47384;DHT22;33129;52.232;5.192;2022-11-03T04:37:43;13.80;1.00
47384;DHT22;33129;52.232;5.192;2022-11-03T04:40:15;13.90;1.00
47384;DHT22;33129;52.232;5.192;2022-11-03T04:42:42;14.20;1.00
47384;DHT22;33129;52.232;5.192;2022-11-03T04:47:51;14.00;1.00
47384;DHT22;33129;52.232;5.192;2022-11-03T04:50:20;13.90;1.00
47384;DHT22;33129;52.232;5.192;2022-11-03T04:52:48;13.80;1.00
47384;DHT22;33129;52.232;5.192;2022-11-03T04:55:19;14.20;1.00
47384;DHT22;33129;52.232;5.192;2022-11-03T04:57:45;13.90;1.00
47384;DHT22;33129;52.232;5.192;2022-11-03T05:00:18;13.70;1.00
47384;DHT22;33129;52.232;5.192;2022-11-03T05:02:48;13.90;1.00
47384;DHT22;33129;52.232;5.192;2022-11-03T05:05:20;13.80;1.00
47384;DHT22;33129;52.232;5.192;2022-11-03T05:07:51;14.10;1.00
47384;DHT22;33129;52.232;5.192;2022-11-03T05:10:26;13.80;1.00
47384;DHT22;33129;52.232;5.192;2022-11-03T05:12:54;13.70;1.00
47384;DHT22;33129;52.232;5.192;2022-11-03T05:18:00;14.00;1.00
47384;DHT22;33129;52.232;5.192;2022-11-03T05:20:44;14.10;1.00
47384;DHT22;33129;52.232;5.192;2022-11-03T05:23:13;14.30;1.00
47384;DHT22;33129;52.232;5.192;2022-11-03T05:25:45;14.00;1.00
47384;DHT22;33129;52.232;5.192;2022-11-03T05:28:20;14.00;1.00
47384;DHT22;33129;52.232;5.192;2022-11-03T05:30:48;14.20;1.00
47384;DHT22;33129;52.232;5.192;2022-11-03T05:33:32;14.00;1.00
47384;DHT22;33129;52.232;5.192;2022-11-03T05:36:09;14.10;1.00
47384;DHT22;33129;52.232;5.192;2022-11-03T05:38:38;14.10;1.00
47384;DHT22;33129;52.232;5.192;2022-11-03T05:41:11;14.00;1.00
47384;DHT22;33129;52.232;5.192;2022-11-03T05:43:41;13.90;1.00
47384;DHT22;33129;52.232;5.192;2022-11-03T05:46:10;14.20;1.00
47384;DHT22;33129;52.232;5.192;2022-11-03T05:48:39;14.20;1.00
47384;DHT22;33129;52.232;5.192;2022-11-03T05:53:50;14.30;1.00
47384;DHT22;33129;52.232;5.192;2022-11-03T05:56:22;14.00;1.00
47384;DHT22;33129;52.232;5.192;2022-11-03T05:58:51;14.10;1.00
47384;DHT22;33129;52.232;5.192;2022-11-03T06:01:25;14.20;1.00
47384;DHT22;33129;52.232;5.192;2022-11-03T06:03:55;14.10;1.00
47384;DHT22;33129;52.232;5.192;2022-11-03T06:06:28;14.00;1.00
47384;DHT22;33129;52.232;5.192;2022-11-03T06:08:57;14.20;1.00
47384;DHT22;33129;52.232;5.192;2022-11-03T06:11:35;14.30;1.00
47384;DHT22;33129;52.232;5.192;2022-11-03T06:14:16;14.40;1.00
47384;DHT22;33129;52.232;5.192;2022-11-03T06:16:49;14.20;1.00
47384;DHT22;33129;52.232;5.192;2022-11-03T06:19:41;14.00;1.00
47384;DHT22;33129;52.232;5.192;2022-11-03T06:25:27;14.10;1.00
47384;DHT22;33129;52.232;5.192;2022-11-03T06:27:59;14.30;1.00
47384;DHT22;33129;52.232;5.192;2022-11-03T06:30:33;14.20;1.00
47384;DHT22;33129;52.232;5.192;2022-11-03T06:33:13;14.30;1.00
47384;DHT22;33129;52.232;5.192;2022-11-03T06:35:44;14.10;1.00
47384;DHT22;33129;52.232;5.192;2022-11-03T06:38:29;13.90;1.00
47384;DHT22;33129;52.232;5.192;2022-11-03T06:40:56;14.20;1.00
47384;DHT22;33129;52.232;5.192;2022-11-03T06:43:29;14.20;1.00
47384;DHT22;33129;52.232;5.192;2022-11-03T06:46:11;14.10;1.00
47384;DHT22;33129;52.232;5.192;2022-11-03T06:48:40;14.10;1.00
47384;DHT22;33129;52.232;5.192;2022-11-03T06:51:24;14.20;1.00
47384;DHT22;33129;52.232;5.192;2022-11-03T06:53:53;14.30;1.00
47384;DHT22;33129;52.232;5.192;2022-11-03T06:56:33;14.30;1.00
47384;DHT22;33129;52.232;5.192;2022-11-03T06:59:00;14.20;1.00
47384;DHT22;33129;52.232;5.192;2022-11-03T07:01:31;14.10;1.00
47384;DHT22;33129;52.232;5.192;2022-11-03T07:04:18;14.30;1.00
47384;DHT22;33129;52.232;5.192;2022-11-03T07:06:48;14.40;1.00
47384;DHT22;33129;52.232;5.192;2022-11-03T07:09:26;14.30;1.00
47384;DHT22;33129;52.232;5.192;2022-11-03T07:11:54;14.10;1.00
47384;DHT22;33129;52.232;5.192;2022-11-03T07:14:30;14.10;1.00
47384;DHT22;33129;52.232;5.192;2022-11-03T07:17:03;14.30;1.00
47384;DHT22;33129;52.232;5.192;2022-11-03T07:19:42;14.30;1.00
47384;DHT22;33129;52.232;5.192;2022-11-03T07:22:21;14.40;1.00
47384;DHT22;33129;52.232;5.192;2022-11-03T07:24:52;14.30;1.00
47384;DHT22;33129;52.232;5.192;2022-11-03T07:27:33;14.30;1.00
47384;DHT22;33129;52.232;5.192;2022-11-03T07:32:40;14.20;1.00
47384;DHT22;33129;52.232;5.192;2022-11-03T07:37:41;14.60;1.00
47384;DHT22;33129;52.232;5.192;2022-11-03T07:40:15;14.30;1.00
47384;DHT22;33129;52.232;5.192;2022-11-03T07:42:43;14.50;1.00
47384;DHT22;33129;52.232;5.192;2022-11-03T07:48:13;14.20;1.00
47384;DHT22;33129;52.232;5.192;2022-11-03T07:50:44;14.40;1.00
47384;DHT22;33129;52.232;5.192;2022-11-03T07:53:21;14.40;1.00
47384;DHT22;33129;52.232;5.192;2022-11-03T07:55:53;14.30;1.00
47384;DHT22;33129;52.232;5.192;2022-11-03T07:58:37;14.60;1.00
47384;DHT22;33129;52.232;5.192;2022-11-03T08:01:19;14.50;1.00
47384;DHT22;33129;52.232;5.192;2022-11-03T08:03:48;14.60;1.00
47384;DHT22;33129;52.232;5.192;2022-11-03T08:06:14;14.50;1.00
47384;DHT22;33129;52.232;5.192;2022-11-03T08:08:40;14.40;1.00
47384;DHT22;33129;52.232;5.192;2022-11-03T08:11:06;14.30;1.00
47384;DHT22;33129;52.232;5.192;2022-11-03T08:13:33;14.60;1.00
47384;DHT22;33129;52.232;5.192;2022-11-03T08:15:58;14.50;1.00
47384;DHT22;33129;52.232;5.192;2022-11-03T08:18:24;14.60;1.00
47384;DHT22;33129;52.232;5.192;2022-11-03T08:20:50;14.40;1.00
47384;DHT22;33129;52.232;5.192;2022-11-03T08:23:17;14.60;1.00
47384;DHT22;33129;52.232;5.192;2022-11-03T08:25:44;14.50;1.00
47384;DHT22;33129;52.232;5.192;2022-11-03T08:28:10;14.90;1.00
47384;DHT22;33129;52.232;5.192;2022-11-03T08:30:35;14.90;1.00
47384;DHT22;33129;52.232;5.192;2022-11-03T08:33:01;14.70;1.00
47384;DHT22;33129;52.232;5.192;2022-11-03T08:35:27;14.50;1.00
47384;DHT22;33129;52.232;5.192;2022-11-03T08:37:52;14.50;1.00
47384;DHT22;33129;52.232;5.192;2022-11-03T08:40:18;14.60;1.00
47384;DHT22;33129;52.232;5.192;2022-11-03T08:42:44;14.80;1.00
47384;DHT22;33129;52.232;5.192;2022-11-03T08:45:12;14.90;1.00
47384;DHT22;33129;52.232;5.192;2022-11-03T08:47:37;14.90;1.00
47384;DHT22;33129;52.232;5.192;2022-11-03T08:50:04;14.90;1.00
47384;DHT22;33129;52.232;5.192;2022-11-03T08:52:30;14.90;1.00
47384;DHT22;33129;52.232;5.192;2022-11-03T08:54:56;14.90;1.00
47384;DHT22;33129;52.232;5.192;2022-11-03T08:57:23;15.00;1.00
47384;DHT22;33129;52.232;5.192;2022-11-03T08:59:50;15.10;1.00
47384;DHT22;33129;52.232;5.192;2022-11-03T09:02:17;14.90;1.00
47384;DHT22;33129;52.232;5.192;2022-11-03T09:04:44;15.00;1.00
47384;DHT22;33129;52.232;5.192;2022-11-03T09:07:10;15.10;1.00
47384;DHT22;33129;52.232;5.192;2022-11-03T09:09:36;15.00;1.00
47384;DHT22;33129;52.232;5.192;2022-11-03T09:12:01;15.20;1.00
47384;DHT22;33129;52.232;5.192;2022-11-03T09:14:27;15.20;1.00
47384;DHT22;33129;52.232;5.192;2022-11-03T09:16:53;15.30;1.00
47384;DHT22;33129;52.232;5.192;2022-11-03T09:19:18;15.40;1.00
47384;DHT22;33129;52.232;5.192;2022-11-03T09:21:44;15.20;1.00
47384;DHT22;33129;52.232;5.192;2022-11-03T09:24:10;15.40;1.00
47384;DHT22;33129;52.232;5.192;2022-11-03T09:26:35;15.30;1.00
47384;DHT22;33129;52.232;5.192;2022-11-03T09:29:02;15.60;1.00
47384;DHT22;33129;52.232;5.192;2022-11-03T09:31:28;15.20;1.00
47384;DHT22;33129;52.232;5.192;2022-11-03T09:33:54;15.30;1.00
47384;DHT22;33129;52.232;5.192;2022-11-03T09:36:20;15.10;1.00
47384;DHT22;33129;52.232;5.192;2022-11-03T09:38:46;15.50;1.00
47384;DHT22;33129;52.232;5.192;2022-11-03T09:41:12;15.40;1.00
47384;DHT22;33129;52.232;5.192;2022-11-03T09:43:44;15.30;1.00
47384;DHT22;33129;52.232;5.192;2022-11-03T09:46:10;15.50;1.00
47384;DHT22;33129;52.232;5.192;2022-11-03T09:48:37;15.40;1.00
47384;DHT22;33129;52.232;5.192;2022-11-03T09:51:03;15.50;1.00
47384;DHT22;33129;52.232;5.192;2022-11-03T09:53:29;15.40;1.00
47384;DHT22;33129;52.232;5.192;2022-11-03T09:55:55;15.30;1.00
47384;DHT22;33129;52.232;5.192;2022-11-03T09:58:21;15.60;1.00
47384;DHT22;33129;52.232;5.192;2022-11-03T10:00:47;15.70;1.00
47384;DHT22;33129;52.232;5.192;2022-11-03T10:03:14;15.60;1.00
47384;DHT22;33129;52.232;5.192;2022-11-03T10:05:43;15.40;1.00
47384;DHT22;33129;52.232;5.192;2022-11-03T10:08:36;15.40;1.00
47384;DHT22;33129;52.232;5.192;2022-11-03T10:11:05;15.20;1.00
47384;DHT22;33129;52.232;5.192;2022-11-03T10:13:44;15.60;1.00
47384;DHT22;33129;52.232;5.192;2022-11-03T10:16:16;15.50;1.00
47384;DHT22;33129;52.232;5.192;2022-11-03T10:18:43;15.40;1.00
47384;DHT22;33129;52.232;5.192;2022-11-03T10:21:22;15.20;1.00
47384;DHT22;33129;52.232;5.192;2022-11-03T10:23:51;15.80;1.00
47384;DHT22;33129;52.232;5.192;2022-11-03T10:26:18;15.70;1.00
47384;DHT22;33129;52.232;5.192;2022-11-03T10:29:05;15.60;1.00
47384;DHT22;33129;52.232;5.192;2022-11-03T10:31:40;15.50;1.00
47384;DHT22;33129;52.232;5.192;2022-11-03T10:34:38;15.70;1.00
47384;DHT22;33129;52.232;5.192;2022-11-03T10:39:50;15.80;1.00
47384;DHT22;33129;52.232;5.192;2022-11-03T10:42:24;15.80;1.00
47384;DHT22;33129;52.232;5.192;2022-11-03T10:45:10;15.70;1.00
47384;DHT22;33129;52.232;5.192;2022-11-03T10:47:40;15.70;1.00
47384;DHT22;33129;52.232;5.192;2022-11-03T10:50:25;16.00;1.00
47384;DHT22;33129;52.232;5.192;2022-11-03T10:52:52;15.90;1.00
47384;DHT22;33129;52.232;5.192;2022-11-03T10:55:19;15.80;1.00
47384;DHT22;33129;52.232;5.192;2022-11-03T10:57:47;15.90;1.00
47384;DHT22;33129;52.232;5.192;2022-11-03T11:00:18;15.90;1.00
47384;DHT22;33129;52.232;5.192;2022-11-03T11:02:46;15.70;1.00
47384;DHT22;33129;52.232;5.192;2022-11-03T11:05:14;16.20;1.00
47384;DHT22;33129;52.232;5.192;2022-11-03T11:07:43;15.70;1.00
47384;DHT22;33129;52.232;5.192;2022-11-03T11:10:16;15.90;1.00
47384;DHT22;33129;52.232;5.192;2022-11-03T11:15:40;16.00;1.00
47384;DHT22;33129;52.232;5.192;2022-11-03T11:18:08;16.10;1.00
47384;DHT22;33129;52.232;5.192;2022-11-03T11:20:37;16.00;1.00
47384;DHT22;33129;52.232;5.192;2022-11-03T11:26:14;16.20;1.00
47384;DHT22;33129;52.232;5.192;2022-11-03T11:28:46;16.10;1.00
47384;DHT22;33129;52.232;5.192;2022-11-03T11:31:38;16.20;1.00
47384;DHT22;33129;52.232;5.192;2022-11-03T11:37:33;16.00;1.00
47384;DHT22;33129;52.232;5.192;2022-11-03T11:42:15;16.30;1.00
47384;DHT22;33129;52.232;5.192;2022-11-03T11:53:02;16.40;1.00
47384;DHT22;33129;52.232;5.192;2022-11-03T11:55:30;16.30;1.00
47384;DHT22;33129;52.232;5.192;2022-11-03T11:57:58;16.60;1.00
47384;DHT22;33129;52.232;5.192;2022-11-03T12:00:30;16.60;1.00
47384;DHT22;33129;52.232;5.192;2022-11-03T12:02:59;16.40;1.00
47384;DHT22;33129;52.232;5.192;2022-11-03T12:05:34;16.50;1.00
47384;DHT22;33129;52.232;5.192;2022-11-03T12:08:00;16.40;1.00
47384;DHT22;33129;52.232;5.192;2022-11-03T12:10:30;16.70;1.00
47384;DHT22;33129;52.232;5.192;2022-11-03T12:12:58;16.60;1.00
47384;DHT22;33129;52.232;5.192;2022-11-03T12:15:53;16.80;1.00
47384;DHT22;33129;52.232;5.192;2022-11-03T12:18:40;16.80;99.90
47384;DHT22;33129;52.232;5.192;2022-11-03T12:21:12;17.20;99.90
47384;DHT22;33129;52.232;5.192;2022-11-03T12:23:58;16.80;99.90
47384;DHT22;33129;52.232;5.192;2022-11-03T12:28:53;16.90;99.90
47384;DHT22;33129;52.232;5.192;2022-11-03T12:31:19;17.40;99.90
47384;DHT22;33129;52.232;5.192;2022-11-03T12:33:45;17.10;99.90
47384;DHT22;33129;52.232;5.192;2022-11-03T12:36:11;17.20;99.90
47384;DHT22;33129;52.232;5.192;2022-11-03T12:38:36;16.80;99.90
47384;DHT22;33129;52.232;5.192;2022-11-03T12:41:03;16.70;99.90
47384;DHT22;33129;52.232;5.192;2022-11-03T12:43:47;17.20;99.90
47384;DHT22;33129;52.232;5.192;2022-11-03T12:46:16;16.60;99.90
47384;DHT22;33129;52.232;5.192;2022-11-03T12:48:42;17.00;99.90
47384;DHT22;33129;52.232;5.192;2022-11-03T12:51:19;16.90;99.90
47384;DHT22;33129;52.232;5.192;2022-11-03T12:53:46;16.90;99.90
47384;DHT22;33129;52.232;5.192;2022-11-03T12:56:13;16.80;99.90
47384;DHT22;33129;52.232;5.192;2022-11-03T12:58:39;16.80;99.90
47384;DHT22;33129;52.232;5.192;2022-11-03T13:01:06;16.80;99.90
47384;DHT22;33129;52.232;5.192;2022-11-03T13:03:34;16.80;99.90
47384;DHT22;33129;52.232;5.192;2022-11-03T13:06:01;16.80;99.90
47384;DHT22;33129;52.232;5.192;2022-11-03T13:08:29;17.10;99.90
47384;DHT22;33129;52.232;5.192;2022-11-03T13:10:56;16.90;99.90
47384;DHT22;33129;52.232;5.192;2022-11-03T13:13:21;17.30;99.90
47384;DHT22;33129;52.232;5.192;2022-11-03T13:15:48;17.30;99.90
47384;DHT22;33129;52.232;5.192;2022-11-03T13:18:46;17.50;99.90
47384;DHT22;33129;52.232;5.192;2022-11-03T13:21:14;17.80;99.90
47384;DHT22;33129;52.232;5.192;2022-11-03T13:23:42;17.80;99.90
47384;DHT22;33129;52.232;5.192;2022-11-03T13:26:08;17.80;99.90
47384;DHT22;33129;52.232;5.192;2022-11-03T13:28:35;17.90;99.90
47384;DHT22;33129;52.232;5.192;2022-11-03T13:31:01;17.70;99.90
47384;DHT22;33129;52.232;5.192;2022-11-03T13:33:27;17.30;99.90
47384;DHT22;33129;52.232;5.192;2022-11-03T13:35:52;17.50;99.90
47384;DHT22;33129;52.232;5.192;2022-11-03T13:38:18;17.10;99.90
47384;DHT22;33129;52.232;5.192;2022-11-03T13:40:44;17.30;99.90
47384;DHT22;33129;52.232;5.192;2022-11-03T13:43:10;17.30;99.90
47384;DHT22;33129;52.232;5.192;2022-11-03T13:45:36;17.20;99.90
47384;DHT22;33129;52.232;5.192;2022-11-03T13:48:02;17.40;99.90
47384;DHT22;33129;52.232;5.192;2022-11-03T13:50:28;17.40;99.90
47384;DHT22;33129;52.232;5.192;2022-11-03T13:52:53;17.30;99.90
47384;DHT22;33129;52.232;5.192;2022-11-03T13:55:19;17.30;99.90
47384;DHT22;33129;52.232;5.192;2022-11-03T13:57:47;17.00;99.90
47384;DHT22;33129;52.232;5.192;2022-11-03T14:00:13;17.00;99.90
47384;DHT22;33129;52.232;5.192;2022-11-03T14:02:41;17.20;99.90
47384;DHT22;33129;52.232;5.192;2022-11-03T14:05:07;17.40;99.90
47384;DHT22;33129;52.232;5.192;2022-11-03T14:07:34;17.20;99.90
47384;DHT22;33129;52.232;5.192;2022-11-03T14:10:00;17.20;99.90
47384;DHT22;33129;52.232;5.192;2022-11-03T14:12:26;17.40;99.90
47384;DHT22;33129;52.232;5.192;2022-11-03T14:14:57;17.20;99.90
47384;DHT22;33129;52.232;5.192;2022-11-03T14:17:24;16.90;99.90
47384;DHT22;33129;52.232;5.192;2022-11-03T14:19:50;17.30;99.90
47384;DHT22;33129;52.232;5.192;2022-11-03T14:22:20;17.00;99.90
47384;DHT22;33129;52.232;5.192;2022-11-03T14:24:48;17.10;99.90
47384;DHT22;33129;52.232;5.192;2022-11-03T14:27:15;17.20;99.90
47384;DHT22;33129;52.232;5.192;2022-11-03T14:29:42;17.20;99.90
47384;DHT22;33129;52.232;5.192;2022-11-03T14:32:09;17.40;99.90
47384;DHT22;33129;52.232;5.192;2022-11-03T14:34:36;17.10;99.90
47384;DHT22;33129;52.232;5.192;2022-11-03T14:37:03;16.80;99.90
47384;DHT22;33129;52.232;5.192;2022-11-03T14:39:29;17.30;99.90
47384;DHT22;33129;52.232;5.192;2022-11-03T14:41:56;16.90;99.90
47384;DHT22;33129;52.232;5.192;2022-11-03T14:44:31;16.90;99.90
47384;DHT22;33129;52.232;5.192;2022-11-03T14:46:58;17.10;99.90
47384;DHT22;33129;52.232;5.192;2022-11-03T14:49:28;17.00;99.90
47384;DHT22;33129;52.232;5.192;2022-11-03T14:51:55;16.50;99.90
47384;DHT22;33129;52.232;5.192;2022-11-03T14:54:25;17.00;99.90
47384;DHT22;33129;52.232;5.192;2022-11-03T14:56:51;16.80;99.90
47384;DHT22;33129;52.232;5.192;2022-11-03T14:59:18;16.90;99.90
47384;DHT22;33129;52.232;5.192;2022-11-03T15:01:45;17.00;99.90
47384;DHT22;33129;52.232;5.192;2022-11-03T15:04:11;17.00;99.90
47384;DHT22;33129;52.232;5.192;2022-11-03T15:06:38;17.10;99.90
47384;DHT22;33129;52.232;5.192;2022-11-03T15:09:05;16.90;99.90
47384;DHT22;33129;52.232;5.192;2022-11-03T15:11:32;16.90;99.90
47384;DHT22;33129;52.232;5.192;2022-11-03T15:13:57;16.90;99.90
47384;DHT22;33129;52.232;5.192;2022-11-03T15:16:23;17.10;99.90
47384;DHT22;33129;52.232;5.192;2022-11-03T15:18:50;16.70;99.90
47384;DHT22;33129;52.232;5.192;2022-11-03T15:21:16;16.50;99.90
47384;DHT22;33129;52.232;5.192;2022-11-03T15:23:42;16.90;99.90
47384;DHT22;33129;52.232;5.192;2022-11-03T15:26:08;16.50;99.90
47384;DHT22;33129;52.232;5.192;2022-11-03T15:28:34;16.80;99.90
47384;DHT22;33129;52.232;5.192;2022-11-03T15:31:00;16.60;1.00
47384;DHT22;33129;52.232;5.192;2022-11-03T15:33:26;16.30;1.00
47384;DHT22;33129;52.232;5.192;2022-11-03T15:35:52;16.20;1.00
47384;DHT22;33129;52.232;5.192;2022-11-03T15:38:18;16.50;1.00
47384;DHT22;33129;52.232;5.192;2022-11-03T15:40:44;16.50;1.00
47384;DHT22;33129;52.232;5.192;2022-11-03T15:43:10;16.30;1.00
47384;DHT22;33129;52.232;5.192;2022-11-03T15:45:36;16.30;1.00
47384;DHT22;33129;52.232;5.192;2022-11-03T15:48:03;16.60;1.00
47384;DHT22;33129;52.232;5.192;2022-11-03T15:50:29;16.10;1.00
47384;DHT22;33129;52.232;5.192;2022-11-03T15:52:55;16.20;1.00
47384;DHT22;33129;52.232;5.192;2022-11-03T15:55:21;15.80;1.00
47384;DHT22;33129;52.232;5.192;2022-11-03T15:57:47;16.20;1.00
47384;DHT22;33129;52.232;5.192;2022-11-03T16:00:14;15.70;1.00
47384;DHT22;33129;52.232;5.192;2022-11-03T16:02:40;15.60;1.00
47384;DHT22;33129;52.232;5.192;2022-11-03T16:05:07;15.60;1.00
47384;DHT22;33129;52.232;5.192;2022-11-03T16:07:33;15.90;1.00
47384;DHT22;33129;52.232;5.192;2022-11-03T16:09:59;15.90;1.00
47384;DHT22;33129;52.232;5.192;2022-11-03T16:12:25;15.90;1.00
47384;DHT22;33129;52.232;5.192;2022-11-03T16:14:52;15.50;1.00
47384;DHT22;33129;52.232;5.192;2022-11-03T16:17:18;15.80;1.00
47384;DHT22;33129;52.232;5.192;2022-11-03T16:19:44;15.70;1.00
47384;DHT22;33129;52.232;5.192;2022-11-03T16:22:10;15.30;1.00
47384;DHT22;33129;52.232;5.192;2022-11-03T16:24:35;15.70;1.00
47384;DHT22;33129;52.232;5.192;2022-11-03T16:27:02;15.70;1.00
47384;DHT22;33129;52.232;5.192;2022-11-03T16:29:28;15.50;1.00
47384;DHT22;33129;52.232;5.192;2022-11-03T16:31:53;15.40;1.00
47384;DHT22;33129;52.232;5.192;2022-11-03T16:34:19;15.10;1.00
47384;DHT22;33129;52.232;5.192;2022-11-03T16:36:45;15.50;1.00
47384;DHT22;33129;52.232;5.192;2022-11-03T16:39:11;15.40;1.00
47384;DHT22;33129;52.232;5.192;2022-11-03T16:41:37;15.30;1.00
47384;DHT22;33129;52.232;5.192;2022-11-03T16:44:03;15.40;1.00
47384;DHT22;33129;52.232;5.192;2022-11-03T16:46:29;15.40;1.00
47384;DHT22;33129;52.232;5.192;2022-11-03T16:48:54;15.40;1.00
47384;DHT22;33129;52.232;5.192;2022-11-03T16:51:21;15.40;1.00
47384;DHT22;33129;52.232;5.192;2022-11-03T16:53:46;15.40;1.00
47384;DHT22;33129;52.232;5.192;2022-11-03T16:56:12;15.80;1.00
47384;DHT22;33129;52.232;5.192;2022-11-03T16:58:38;15.50;1.00
47384;DHT22;33129;52.232;5.192;2022-11-03T17:01:05;15.50;1.00
47384;DHT22;33129;52.232;5.192;2022-11-03T17:03:30;15.50;1.00